sensor_id;sensor_type;location;lat;lon;timestamp;P1;durP1;ratioP1;P2;durP2;ratioP2
60312;SDS011;46158;52.850;6.970;2022-09-03T00:01:50;2.97;;;1.73;;
60312;SDS011;46158;52.850;6.970;2022-09-03T00:04:41;2.40;;;1.90;;
60312;SDS011;46158;52.850;6.970;2022-09-03T00:07:23;3.00;;;1.80;;
60312;SDS011;46158;52.850;6.970;2022-09-03T00:09:59;3.50;;;1.98;;
60312;SDS011;46158;52.850;6.970;2022-09-03T00:12:29;1.83;;;1.70;;
60312;SDS011;46158;52.850;6.970;2022-09-03T00:15:02;3.72;;;2.08;;
60312;SDS011;46158;52.850;6.970;2022-09-03T00:17:34;3.35;;;1.98;;
60312;SDS011;46158;52.850;6.970;2022-09-03T00:20:17;2.45;;;1.90;;
60312;SDS011;46158;52.850;6.970;2022-09-03T00:22:52;3.92;;;1.90;;
60312;SDS011;46158;52.850;6.970;2022-09-03T00:25:38;2.67;;;1.80;;
60312;SDS011;46158;52.850;6.970;2022-09-03T00:28:13;2.85;;;2.00;;
60312;SDS011;46158;52.850;6.970;2022-09-03T00:30:44;1.70;;;1.60;;
60312;SDS011;46158;52.850;6.970;2022-09-03T00:33:19;3.17;;;1.90;;
60312;SDS011;46158;52.850;6.970;2022-09-03T00:38:38;3.03;;;1.90;;
60312;SDS011;46158;52.850;6.970;2022-09-03T00:46:24;2.22;;;1.73;;
60312;SDS011;46158;52.850;6.970;2022-09-03T00:55:44;2.05;;;1.70;;
60312;SDS011;46158;52.850;6.970;2022-09-03T01:00:21;1.75;;;1.63;;
60312;SDS011;46158;52.850;6.970;2022-09-03T01:08:27;1.98;;;1.77;;
60312;SDS011;46158;52.850;6.970;2022-09-03T01:11:19;2.15;;;1.67;;
60312;SDS011;46158;52.850;6.970;2022-09-03T01:28:09;1.95;;;1.75;;
60312;SDS011;46158;52.850;6.970;2022-09-03T01:30:43;1.73;;;1.63;;
60312;SDS011;46158;52.850;6.970;2022-09-03T01:47:16;2.35;;;1.70;;
60312;SDS011;46158;52.850;6.970;2022-09-03T01:52:58;1.77;;;1.67;;
60312;SDS011;46158;52.850;6.970;2022-09-03T01:55:35;3.30;;;1.80;;
60312;SDS011;46158;52.850;6.970;2022-09-03T01:58:23;3.30;;;1.50;;
60312;SDS011;46158;52.850;6.970;2022-09-03T02:01:02;2.00;;;1.77;;
60312;SDS011;46158;52.850;6.970;2022-09-03T02:03:38;2.78;;;1.80;;
60312;SDS011;46158;52.850;6.970;2022-09-03T02:06:07;1.88;;;1.70;;
60312;SDS011;46158;52.850;6.970;2022-09-03T02:08:34;1.58;;;1.48;;
60312;SDS011;46158;52.850;6.970;2022-09-03T02:11:00;3.15;;;1.52;;
60312;SDS011;46158;52.850;6.970;2022-09-03T02:15:52;3.20;;;1.73;;
60312;SDS011;46158;52.850;6.970;2022-09-03T02:18:25;2.78;;;1.65;;
60312;SDS011;46158;52.850;6.970;2022-09-03T02:20:55;2.30;;;1.80;;
60312;SDS011;46158;52.850;6.970;2022-09-03T02:23:23;1.63;;;1.50;;
60312;SDS011;46158;52.850;6.970;2022-09-03T02:25:59;1.50;;;1.40;;
60312;SDS011;46158;52.850;6.970;2022-09-03T02:28:26;2.15;;;1.70;;
60312;SDS011;46158;52.850;6.970;2022-09-03T02:30:54;2.13;;;1.55;;
60312;SDS011;46158;52.850;6.970;2022-09-03T02:33:20;1.95;;;1.60;;
60312;SDS011;46158;52.850;6.970;2022-09-03T02:35:47;1.80;;;1.70;;
60312;SDS011;46158;52.850;6.970;2022-09-03T02:38:17;2.00;;;1.65;;
60312;SDS011;46158;52.850;6.970;2022-09-03T02:40:44;2.38;;;1.60;;
60312;SDS011;46158;52.850;6.970;2022-09-03T02:43:12;2.28;;;1.50;;
60312;SDS011;46158;52.850;6.970;2022-09-03T02:45:44;2.30;;;1.70;;
60312;SDS011;46158;52.850;6.970;2022-09-03T02:48:12;1.50;;;1.40;;
60312;SDS011;46158;52.850;6.970;2022-09-03T02:50:45;1.90;;;1.67;;
60312;SDS011;46158;52.850;6.970;2022-09-03T02:53:11;3.90;;;1.58;;
60312;SDS011;46158;52.850;6.970;2022-09-03T02:55:36;1.55;;;1.45;;
60312;SDS011;46158;52.850;6.970;2022-09-03T02:58:02;2.20;;;1.30;;
60312;SDS011;46158;52.850;6.970;2022-09-03T03:00:31;1.58;;;1.48;;
60312;SDS011;46158;52.850;6.970;2022-09-03T03:02:57;1.65;;;1.55;;
60312;SDS011;46158;52.850;6.970;2022-09-03T03:05:27;2.85;;;1.60;;
60312;SDS011;46158;52.850;6.970;2022-09-03T03:08:07;2.22;;;1.50;;
60312;SDS011;46158;52.850;6.970;2022-09-03T03:10:33;1.73;;;1.48;;
60312;SDS011;46158;52.850;6.970;2022-09-03T03:13:00;1.52;;;1.40;;
60312;SDS011;46158;52.850;6.970;2022-09-03T03:15:26;2.65;;;1.42;;
60312;SDS011;46158;52.850;6.970;2022-09-03T03:17:54;2.95;;;1.40;;
60312;SDS011;46158;52.850;6.970;2022-09-03T03:20:21;1.42;;;1.33;;
60312;SDS011;46158;52.850;6.970;2022-09-03T03:22:47;2.10;;;1.50;;
60312;SDS011;46158;52.850;6.970;2022-09-03T03:25:12;1.92;;;1.45;;
60312;SDS011;46158;52.850;6.970;2022-09-03T03:27:38;1.70;;;1.60;;
60312;SDS011;46158;52.850;6.970;2022-09-03T03:30:06;1.67;;;1.58;;
60312;SDS011;46158;52.850;6.970;2022-09-03T03:32:34;2.35;;;1.48;;
60312;SDS011;46158;52.850;6.970;2022-09-03T03:35:01;1.85;;;1.52;;
60312;SDS011;46158;52.850;6.970;2022-09-03T03:37:27;1.45;;;1.33;;
60312;SDS011;46158;52.850;6.970;2022-09-03T03:39:53;2.17;;;1.60;;
60312;SDS011;46158;52.850;6.970;2022-09-03T03:42:18;1.38;;;1.30;;
60312;SDS011;46158;52.850;6.970;2022-09-03T03:44:44;1.60;;;1.50;;
60312;SDS011;46158;52.850;6.970;2022-09-03T03:47:10;1.40;;;1.30;;
60312;SDS011;46158;52.850;6.970;2022-09-03T03:49:36;1.40;;;1.30;;
60312;SDS011;46158;52.850;6.970;2022-09-03T03:52:02;1.85;;;1.65;;
60312;SDS011;46158;52.850;6.970;2022-09-03T03:54:28;1.77;;;1.38;;
60312;SDS011;46158;52.850;6.970;2022-09-03T03:56:54;2.60;;;1.35;;
60312;SDS011;46158;52.850;6.970;2022-09-03T03:59:20;1.42;;;1.30;;
60312;SDS011;46158;52.850;6.970;2022-09-03T04:01:46;1.83;;;1.50;;
60312;SDS011;46158;52.850;6.970;2022-09-03T04:04:14;1.92;;;1.60;;
60312;SDS011;46158;52.850;6.970;2022-09-03T04:06:40;1.85;;;1.67;;
60312;SDS011;46158;52.850;6.970;2022-09-03T04:09:06;2.28;;;1.65;;
60312;SDS011;46158;52.850;6.970;2022-09-03T04:11:32;1.95;;;1.35;;
60312;SDS011;46158;52.850;6.970;2022-09-03T04:13:58;2.10;;;1.60;;
60312;SDS011;46158;52.850;6.970;2022-09-03T04:16:25;2.75;;;1.50;;
60312;SDS011;46158;52.850;6.970;2022-09-03T04:18:54;1.40;;;1.30;;
60312;SDS011;46158;52.850;6.970;2022-09-03T04:21:22;3.25;;;1.45;;
60312;SDS011;46158;52.850;6.970;2022-09-03T04:23:50;2.30;;;1.50;;
60312;SDS011;46158;52.850;6.970;2022-09-03T04:26:20;2.75;;;1.40;;
60312;SDS011;46158;52.850;6.970;2022-09-03T04:28:48;2.72;;;1.60;;
60312;SDS011;46158;52.850;6.970;2022-09-03T04:31:15;1.40;;;1.30;;
60312;SDS011;46158;52.850;6.970;2022-09-03T04:33:42;1.42;;;1.33;;
60312;SDS011;46158;52.850;6.970;2022-09-03T04:36:12;2.08;;;1.50;;
60312;SDS011;46158;52.850;6.970;2022-09-03T04:38:39;1.60;;;1.50;;
60312;SDS011;46158;52.850;6.970;2022-09-03T04:41:07;3.35;;;1.70;;
60312;SDS011;46158;52.850;6.970;2022-09-03T04:43:34;2.40;;;1.50;;
60312;SDS011;46158;52.850;6.970;2022-09-03T04:46:00;1.50;;;1.40;;
60312;SDS011;46158;52.850;6.970;2022-09-03T04:48:29;2.03;;;1.55;;
60312;SDS011;46158;52.850;6.970;2022-09-03T04:51:00;1.60;;;1.50;;
60312;SDS011;46158;52.850;6.970;2022-09-03T04:53:34;2.45;;;1.50;;
60312;SDS011;46158;52.850;6.970;2022-09-03T04:58:39;3.00;;;1.67;;
60312;SDS011;46158;52.850;6.970;2022-09-03T05:01:08;1.55;;;1.45;;
60312;SDS011;46158;52.850;6.970;2022-09-03T05:03:34;1.13;;;1.10;;
60312;SDS011;46158;52.850;6.970;2022-09-03T05:06:01;1.75;;;1.42;;
60312;SDS011;46158;52.850;6.970;2022-09-03T05:08:27;1.90;;;1.45;;
60312;SDS011;46158;52.850;6.970;2022-09-03T05:10:56;1.40;;;1.30;;
60312;SDS011;46158;52.850;6.970;2022-09-03T05:13:24;3.63;;;1.65;;
60312;SDS011;46158;52.850;6.970;2022-09-03T05:15:49;1.45;;;1.35;;
60312;SDS011;46158;52.850;6.970;2022-09-03T05:18:15;2.25;;;1.60;;
60312;SDS011;46158;52.850;6.970;2022-09-03T05:20:41;2.30;;;1.50;;
60312;SDS011;46158;52.850;6.970;2022-09-03T05:23:06;1.60;;;1.50;;
60312;SDS011;46158;52.850;6.970;2022-09-03T05:25:32;1.75;;;1.48;;
60312;SDS011;46158;52.850;6.970;2022-09-03T05:27:58;1.60;;;1.50;;
60312;SDS011;46158;52.850;6.970;2022-09-03T05:30:24;2.00;;;1.52;;
60312;SDS011;46158;52.850;6.970;2022-09-03T05:32:50;1.77;;;1.50;;
60312;SDS011;46158;52.850;6.970;2022-09-03T05:35:16;1.65;;;1.55;;
60312;SDS011;46158;52.850;6.970;2022-09-03T05:37:42;1.50;;;1.40;;
60312;SDS011;46158;52.850;6.970;2022-09-03T05:40:08;1.50;;;1.40;;
60312;SDS011;46158;52.850;6.970;2022-09-03T05:42:35;2.30;;;1.45;;
60312;SDS011;46158;52.850;6.970;2022-09-03T05:45:08;1.52;;;1.30;;
60312;SDS011;46158;52.850;6.970;2022-09-03T05:47:35;1.50;;;1.40;;
60312;SDS011;46158;52.850;6.970;2022-09-03T05:50:04;2.60;;;1.52;;
60312;SDS011;46158;52.850;6.970;2022-09-03T05:52:31;1.27;;;1.17;;
60312;SDS011;46158;52.850;6.970;2022-09-03T05:54:57;1.80;;;1.65;;
60312;SDS011;46158;52.850;6.970;2022-09-03T05:57:22;1.23;;;1.20;;
60312;SDS011;46158;52.850;6.970;2022-09-03T05:59:50;1.30;;;1.20;;
60312;SDS011;46158;52.850;6.970;2022-09-03T06:02:17;1.98;;;1.55;;
60312;SDS011;46158;52.850;6.970;2022-09-03T06:04:43;2.83;;;1.58;;
60312;SDS011;46158;52.850;6.970;2022-09-03T06:07:08;1.60;;;1.50;;
60312;SDS011;46158;52.850;6.970;2022-09-03T06:09:34;3.40;;;1.55;;
60312;SDS011;46158;52.850;6.970;2022-09-03T06:12:00;3.33;;;1.40;;
60312;SDS011;46158;52.850;6.970;2022-09-03T06:14:25;1.40;;;1.30;;
60312;SDS011;46158;52.850;6.970;2022-09-03T06:16:51;1.73;;;1.35;;
60312;SDS011;46158;52.850;6.970;2022-09-03T06:19:17;2.60;;;1.65;;
60312;SDS011;46158;52.850;6.970;2022-09-03T06:21:43;2.33;;;1.40;;
60312;SDS011;46158;52.850;6.970;2022-09-03T06:24:19;1.77;;;1.40;;
60312;SDS011;46158;52.850;6.970;2022-09-03T06:26:48;2.20;;;1.77;;
60312;SDS011;46158;52.850;6.970;2022-09-03T06:29:14;3.45;;;1.60;;
60312;SDS011;46158;52.850;6.970;2022-09-03T06:31:42;1.80;;;1.60;;
60312;SDS011;46158;52.850;6.970;2022-09-03T06:34:07;3.00;;;1.70;;
60312;SDS011;46158;52.850;6.970;2022-09-03T06:36:33;1.98;;;1.77;;
60312;SDS011;46158;52.850;6.970;2022-09-03T06:38:59;2.22;;;1.50;;
60312;SDS011;46158;52.850;6.970;2022-09-03T06:41:26;1.55;;;1.40;;
60312;SDS011;46158;52.850;6.970;2022-09-03T06:44:00;1.70;;;1.60;;
60312;SDS011;46158;52.850;6.970;2022-09-03T06:46:31;1.80;;;1.60;;
60312;SDS011;46158;52.850;6.970;2022-09-03T06:48:58;1.88;;;1.60;;
60312;SDS011;46158;52.850;6.970;2022-09-03T06:51:25;2.13;;;1.67;;
60312;SDS011;46158;52.850;6.970;2022-09-03T06:53:53;2.97;;;1.75;;
60312;SDS011;46158;52.850;6.970;2022-09-03T06:56:23;3.00;;;1.60;;
60312;SDS011;46158;52.850;6.970;2022-09-03T06:58:56;2.50;;;1.73;;
60312;SDS011;46158;52.850;6.970;2022-09-03T07:01:23;2.78;;;1.70;;
60312;SDS011;46158;52.850;6.970;2022-09-03T07:03:51;1.83;;;1.70;;
60312;SDS011;46158;52.850;6.970;2022-09-03T07:06:25;3.05;;;1.80;;
60312;SDS011;46158;52.850;6.970;2022-09-03T07:08:55;3.45;;;1.83;;
60312;SDS011;46158;52.850;6.970;2022-09-03T07:11:23;1.95;;;1.70;;
60312;SDS011;46158;52.850;6.970;2022-09-03T07:13:51;3.47;;;1.80;;
60312;SDS011;46158;52.850;6.970;2022-09-03T07:16:19;2.00;;;1.80;;
60312;SDS011;46158;52.850;6.970;2022-09-03T07:18:49;4.10;;;1.77;;
60312;SDS011;46158;52.850;6.970;2022-09-03T07:21:16;2.08;;;1.70;;
60312;SDS011;46158;52.850;6.970;2022-09-03T07:23:43;2.08;;;1.88;;
60312;SDS011;46158;52.850;6.970;2022-09-03T07:26:10;2.10;;;1.90;;
60312;SDS011;46158;52.850;6.970;2022-09-03T07:28:39;2.58;;;1.70;;
60312;SDS011;46158;52.850;6.970;2022-09-03T07:31:11;2.78;;;1.90;;
60312;SDS011;46158;52.850;6.970;2022-09-03T07:33:39;2.35;;;1.88;;
60312;SDS011;46158;52.850;6.970;2022-09-03T07:36:07;2.40;;;1.73;;
60312;SDS011;46158;52.850;6.970;2022-09-03T07:38:34;1.70;;;1.60;;
60312;SDS011;46158;52.850;6.970;2022-09-03T07:41:01;1.98;;;1.63;;
60312;SDS011;46158;52.850;6.970;2022-09-03T07:43:31;3.38;;;1.80;;
60312;SDS011;46158;52.850;6.970;2022-09-03T07:46:08;2.65;;;1.70;;
60312;SDS011;46158;52.850;6.970;2022-09-03T07:48:37;3.83;;;1.90;;
60312;SDS011;46158;52.850;6.970;2022-09-03T07:51:06;1.98;;;1.58;;
60312;SDS011;46158;52.850;6.970;2022-09-03T07:53:32;4.25;;;1.80;;
60312;SDS011;46158;52.850;6.970;2022-09-03T07:56:05;4.18;;;1.80;;
60312;SDS011;46158;52.850;6.970;2022-09-03T07:58:33;2.83;;;1.73;;
60312;SDS011;46158;52.850;6.970;2022-09-03T08:01:33;3.72;;;1.90;;
60312;SDS011;46158;52.850;6.970;2022-09-03T08:03:53;2.67;;;1.67;;
60312;SDS011;46158;52.850;6.970;2022-09-03T08:06:22;2.67;;;1.70;;
60312;SDS011;46158;52.850;6.970;2022-09-03T08:08:54;3.63;;;1.80;;
60312;SDS011;46158;52.850;6.970;2022-09-03T08:11:22;1.80;;;1.67;;
60312;SDS011;46158;52.850;6.970;2022-09-03T08:13:56;2.85;;;1.80;;
60312;SDS011;46158;52.850;6.970;2022-09-03T08:16:30;1.75;;;1.65;;
60312;SDS011;46158;52.850;6.970;2022-09-03T08:18:57;2.33;;;1.70;;
60312;SDS011;46158;52.850;6.970;2022-09-03T08:21:24;3.13;;;1.70;;
60312;SDS011;46158;52.850;6.970;2022-09-03T08:23:51;3.90;;;1.80;;
60312;SDS011;46158;52.850;6.970;2022-09-03T08:26:20;2.17;;;1.70;;
60312;SDS011;46158;52.850;6.970;2022-09-03T08:28:46;4.32;;;1.70;;
60312;SDS011;46158;52.850;6.970;2022-09-03T08:31:16;3.35;;;1.77;;
60312;SDS011;46158;52.850;6.970;2022-09-03T08:38:41;2.17;;;1.70;;
60312;SDS011;46158;52.850;6.970;2022-09-03T08:49:28;2.35;;;1.73;;
60312;SDS011;46158;52.850;6.970;2022-09-03T08:52:08;2.92;;;1.90;;
60312;SDS011;46158;52.850;6.970;2022-09-03T08:54:41;2.17;;;1.60;;
60312;SDS011;46158;52.850;6.970;2022-09-03T08:57:07;2.65;;;1.67;;
60312;SDS011;46158;52.850;6.970;2022-09-03T08:59:33;1.52;;;1.42;;
60312;SDS011;46158;52.850;6.970;2022-09-03T09:07:50;2.78;;;1.65;;
60312;SDS011;46158;52.850;6.970;2022-09-03T09:10:27;2.55;;;1.70;;
60312;SDS011;46158;52.850;6.970;2022-09-03T09:12:57;3.00;;;1.95;;
60312;SDS011;46158;52.850;6.970;2022-09-03T09:21:11;2.65;;;1.83;;
60312;SDS011;46158;52.850;6.970;2022-09-03T09:26:10;2.55;;;1.70;;
60312;SDS011;46158;52.850;6.970;2022-09-03T09:28:39;2.88;;;1.70;;
60312;SDS011;46158;52.850;6.970;2022-09-03T09:31:10;2.47;;;1.70;;
60312;SDS011;46158;52.850;6.970;2022-09-03T09:33:40;2.88;;;1.70;;
60312;SDS011;46158;52.850;6.970;2022-09-03T09:36:09;2.25;;;1.67;;
60312;SDS011;46158;52.850;6.970;2022-09-03T09:38:39;3.10;;;1.70;;
60312;SDS011;46158;52.850;6.970;2022-09-03T09:43:39;2.35;;;1.70;;
60312;SDS011;46158;52.850;6.970;2022-09-03T09:46:12;1.92;;;1.60;;
60312;SDS011;46158;52.850;6.970;2022-09-03T09:48:55;3.15;;;1.80;;
60312;SDS011;46158;52.850;6.970;2022-09-03T09:56:44;1.70;;;1.60;;
60312;SDS011;46158;52.850;6.970;2022-09-03T09:59:11;1.70;;;1.50;;
60312;SDS011;46158;52.850;6.970;2022-09-03T10:01:40;2.90;;;1.70;;
60312;SDS011;46158;52.850;6.970;2022-09-03T10:04:09;2.38;;;1.67;;
60312;SDS011;46158;52.850;6.970;2022-09-03T10:06:36;2.13;;;1.80;;
60312;SDS011;46158;52.850;6.970;2022-09-03T10:09:21;2.22;;;1.48;;
60312;SDS011;46158;52.850;6.970;2022-09-03T10:11:56;2.65;;;1.90;;
60312;SDS011;46158;52.850;6.970;2022-09-03T10:14:48;2.42;;;1.58;;
60312;SDS011;46158;52.850;6.970;2022-09-03T10:17:46;2.10;;;1.60;;
60312;SDS011;46158;52.850;6.970;2022-09-03T10:23:15;1.70;;;1.60;;
60312;SDS011;46158;52.850;6.970;2022-09-03T10:28:34;2.83;;;1.70;;
60312;SDS011;46158;52.850;6.970;2022-09-03T10:31:26;2.95;;;1.80;;
60312;SDS011;46158;52.850;6.970;2022-09-03T10:37:00;1.95;;;1.60;;
60312;SDS011;46158;52.850;6.970;2022-09-03T10:45:16;3.88;;;1.90;;
60312;SDS011;46158;52.850;6.970;2022-09-03T10:52:47;2.78;;;1.60;;
60312;SDS011;46158;52.850;6.970;2022-09-03T10:55:39;3.08;;;1.80;;
60312;SDS011;46158;52.850;6.970;2022-09-03T10:58:29;1.80;;;1.50;;
60312;SDS011;46158;52.850;6.970;2022-09-03T11:04:19;2.20;;;1.70;;
60312;SDS011;46158;52.850;6.970;2022-09-03T11:07:13;2.95;;;1.60;;
60312;SDS011;46158;52.850;6.970;2022-09-03T11:09:47;2.33;;;1.33;;
60312;SDS011;46158;52.850;6.970;2022-09-03T11:14:51;3.90;;;1.67;;
60312;SDS011;46158;52.850;6.970;2022-09-03T11:17:43;1.80;;;1.48;;
60312;SDS011;46158;52.850;6.970;2022-09-03T11:20:16;2.05;;;1.42;;
60312;SDS011;46158;52.850;6.970;2022-09-03T11:22:47;1.77;;;1.67;;
60312;SDS011;46158;52.850;6.970;2022-09-03T11:25:16;3.10;;;1.80;;
60312;SDS011;46158;52.850;6.970;2022-09-03T11:27:51;2.08;;;1.70;;
60312;SDS011;46158;52.850;6.970;2022-09-03T11:30:27;2.08;;;1.55;;
60312;SDS011;46158;52.850;6.970;2022-09-03T11:32:59;2.72;;;1.70;;
60312;SDS011;46158;52.850;6.970;2022-09-03T11:37:57;2.33;;;1.70;;
60312;SDS011;46158;52.850;6.970;2022-09-03T11:49:10;3.47;;;1.95;;
60312;SDS011;46158;52.850;6.970;2022-09-03T11:51:38;2.72;;;1.80;;
60312;SDS011;46158;52.850;6.970;2022-09-03T11:56:37;5.13;;;1.70;;
60312;SDS011;46158;52.850;6.970;2022-09-03T12:04:49;3.70;;;1.70;;
60312;SDS011;46158;52.850;6.970;2022-09-03T12:07:43;1.75;;;1.60;;
60312;SDS011;46158;52.850;6.970;2022-09-03T12:18:51;3.33;;;1.92;;
60312;SDS011;46158;52.850;6.970;2022-09-03T12:21:21;2.60;;;1.77;;
60312;SDS011;46158;52.850;6.970;2022-09-03T12:23:48;2.70;;;1.63;;
60312;SDS011;46158;52.850;6.970;2022-09-03T12:28:53;2.90;;;1.83;;
60312;SDS011;46158;52.850;6.970;2022-09-03T12:31:25;3.33;;;1.92;;
60312;SDS011;46158;52.850;6.970;2022-09-03T12:34:14;2.58;;;1.90;;
60312;SDS011;46158;52.850;6.970;2022-09-03T12:36:42;1.80;;;1.60;;
60312;SDS011;46158;52.850;6.970;2022-09-03T12:41:35;1.83;;;1.70;;
60312;SDS011;46158;52.850;6.970;2022-09-03T12:44:01;3.58;;;1.85;;
60312;SDS011;46158;52.850;6.970;2022-09-03T12:46:28;2.03;;;1.77;;
60312;SDS011;46158;52.850;6.970;2022-09-03T12:48:59;2.60;;;1.85;;
60312;SDS011;46158;52.850;6.970;2022-09-03T12:51:33;1.70;;;1.60;;
60312;SDS011;46158;52.850;6.970;2022-09-03T12:54:01;1.90;;;1.70;;
60312;SDS011;46158;52.850;6.970;2022-09-03T12:59:06;5.00;;;1.90;;
60312;SDS011;46158;52.850;6.970;2022-09-03T13:01:42;3.35;;;1.75;;
60312;SDS011;46158;52.850;6.970;2022-09-03T13:06:59;1.70;;;1.60;;
60312;SDS011;46158;52.850;6.970;2022-09-03T13:09:27;2.63;;;1.90;;
60312;SDS011;46158;52.850;6.970;2022-09-03T13:11:57;3.42;;;1.85;;
60312;SDS011;46158;52.850;6.970;2022-09-03T13:14:40;2.72;;;1.80;;
60312;SDS011;46158;52.850;6.970;2022-09-03T13:17:29;2.80;;;1.95;;
60312;SDS011;46158;52.850;6.970;2022-09-03T13:22:34;3.13;;;1.83;;
60312;SDS011;46158;52.850;6.970;2022-09-03T13:27:53;2.70;;;1.90;;
60312;SDS011;46158;52.850;6.970;2022-09-03T13:33:31;3.72;;;1.80;;
60312;SDS011;46158;52.850;6.970;2022-09-03T13:36:21;4.50;;;2.00;;
60312;SDS011;46158;52.850;6.970;2022-09-03T13:39:01;2.85;;;1.90;;
60312;SDS011;46158;52.850;6.970;2022-09-03T13:44:10;2.75;;;1.60;;
60312;SDS011;46158;52.850;6.970;2022-09-03T13:52:26;3.72;;;1.95;;
60312;SDS011;46158;52.850;6.970;2022-09-03T13:55:06;3.75;;;2.08;;
60312;SDS011;46158;52.850;6.970;2022-09-03T13:57:50;4.63;;;1.90;;
60312;SDS011;46158;52.850;6.970;2022-09-03T14:03:06;3.30;;;1.80;;
60312;SDS011;46158;52.850;6.970;2022-09-03T14:08:27;7.55;;;2.00;;
60312;SDS011;46158;52.850;6.970;2022-09-03T14:14:05;3.22;;;1.70;;
60312;SDS011;46158;52.850;6.970;2022-09-03T14:21:53;2.17;;;1.83;;
60312;SDS011;46158;52.850;6.970;2022-09-03T14:27:23;2.17;;;1.80;;
60312;SDS011;46158;52.850;6.970;2022-09-03T14:29:58;3.85;;;1.80;;
60312;SDS011;46158;52.850;6.970;2022-09-03T14:32:27;3.08;;;1.80;;
60312;SDS011;46158;52.850;6.970;2022-09-03T14:43:13;4.28;;;1.88;;
60312;SDS011;46158;52.850;6.970;2022-09-03T14:48:59;1.88;;;1.60;;
60312;SDS011;46158;52.850;6.970;2022-09-03T14:52:01;4.30;;;2.05;;
60312;SDS011;46158;52.850;6.970;2022-09-03T15:00:44;3.47;;;1.80;;
60312;SDS011;46158;52.850;6.970;2022-09-03T15:06:31;2.85;;;1.92;;
60312;SDS011;46158;52.850;6.970;2022-09-03T15:11:57;2.47;;;1.85;;
60312;SDS011;46158;52.850;6.970;2022-09-03T15:28:31;1.85;;;1.65;;
60312;SDS011;46158;52.850;6.970;2022-09-03T15:31:01;2.28;;;1.70;;
60312;SDS011;46158;52.850;6.970;2022-09-03T15:36:35;2.15;;;1.75;;
60312;SDS011;46158;52.850;6.970;2022-09-03T15:39:06;3.75;;;2.05;;
60312;SDS011;46158;52.850;6.970;2022-09-03T15:44:21;2.95;;;1.75;;
60312;SDS011;46158;52.850;6.970;2022-09-03T15:46:55;2.15;;;1.90;;
60312;SDS011;46158;52.850;6.970;2022-09-03T16:00:33;4.18;;;2.10;;
60312;SDS011;46158;52.850;6.970;2022-09-03T16:03:14;2.70;;;1.90;;
60312;SDS011;46158;52.850;6.970;2022-09-03T16:13:58;2.03;;;1.80;;
60312;SDS011;46158;52.850;6.970;2022-09-03T16:16:43;2.08;;;1.88;;
60312;SDS011;46158;52.850;6.970;2022-09-03T16:19:27;5.20;;;2.05;;
60312;SDS011;46158;52.850;6.970;2022-09-03T16:24:51;2.53;;;2.00;;
60312;SDS011;46158;52.850;6.970;2022-09-03T16:27:24;4.13;;;2.03;;
60312;SDS011;46158;52.850;6.970;2022-09-03T16:53:27;2.83;;;1.80;;
60312;SDS011;46158;52.850;6.970;2022-09-03T16:59:30;3.42;;;1.90;;
60312;SDS011;46158;52.850;6.970;2022-09-03T17:21:47;2.53;;;1.80;;
60312;SDS011;46158;52.850;6.970;2022-09-03T17:35:40;3.30;;;1.90;;
60312;SDS011;46158;52.850;6.970;2022-09-03T17:41:06;3.05;;;2.00;;
60312;SDS011;46158;52.850;6.970;2022-09-03T17:46:44;3.13;;;2.00;;
60312;SDS011;46158;52.850;6.970;2022-09-03T17:49:34;2.22;;;1.70;;
60312;SDS011;46158;52.850;6.970;2022-09-03T17:55:01;2.75;;;1.90;;
60312;SDS011;46158;52.850;6.970;2022-09-03T17:57:45;2.50;;;1.90;;
60312;SDS011;46158;52.850;6.970;2022-09-03T18:02:58;3.13;;;2.00;;
60312;SDS011;46158;52.850;6.970;2022-09-03T18:05:33;3.13;;;2.00;;
60312;SDS011;46158;52.850;6.970;2022-09-03T18:18:35;2.72;;;1.88;;
60312;SDS011;46158;52.850;6.970;2022-09-03T18:21:09;2.85;;;1.83;;
60312;SDS011;46158;52.850;6.970;2022-09-03T18:27:14;3.20;;;1.90;;
60312;SDS011;46158;52.850;6.970;2022-09-03T18:30:05;2.78;;;1.90;;
60312;SDS011;46158;52.850;6.970;2022-09-03T18:32:55;2.95;;;1.65;;
60312;SDS011;46158;52.850;6.970;2022-09-03T18:35:39;2.10;;;1.83;;
60312;SDS011;46158;52.850;6.970;2022-09-03T18:38:27;2.97;;;1.80;;
60312;SDS011;46158;52.850;6.970;2022-09-03T18:50:28;3.88;;;1.80;;
60312;SDS011;46158;52.850;6.970;2022-09-03T18:59:15;3.63;;;2.10;;
60312;SDS011;46158;52.850;6.970;2022-09-03T19:02:26;2.00;;;1.80;;
60312;SDS011;46158;52.850;6.970;2022-09-03T19:05:32;2.53;;;1.90;;
60312;SDS011;46158;52.850;6.970;2022-09-03T19:08:40;2.88;;;1.88;;
60312;SDS011;46158;52.850;6.970;2022-09-03T19:14:59;3.42;;;2.00;;
60312;SDS011;46158;52.850;6.970;2022-09-03T19:21:17;2.90;;;1.83;;
60312;SDS011;46158;52.850;6.970;2022-09-03T19:30:03;4.88;;;1.90;;
60312;SDS011;46158;52.850;6.970;2022-09-03T19:36:10;2.00;;;1.80;;
60312;SDS011;46158;52.850;6.970;2022-09-03T19:54:56;2.45;;;1.80;;
60312;SDS011;46158;52.850;6.970;2022-09-03T19:57:42;3.15;;;1.70;;
60312;SDS011;46158;52.850;6.970;2022-09-03T20:00:32;1.70;;;1.60;;
60312;SDS011;46158;52.850;6.970;2022-09-03T20:03:17;2.20;;;1.70;;
60312;SDS011;46158;52.850;6.970;2022-09-03T20:06:02;3.72;;;1.70;;
60312;SDS011;46158;52.850;6.970;2022-09-03T20:08:49;2.25;;;1.83;;
60312;SDS011;46158;52.850;6.970;2022-09-03T20:11:34;2.42;;;1.70;;
60312;SDS011;46158;52.850;6.970;2022-09-03T20:14:02;2.22;;;1.65;;
60312;SDS011;46158;52.850;6.970;2022-09-03T20:22:01;1.73;;;1.60;;
60312;SDS011;46158;52.850;6.970;2022-09-03T20:35:07;1.83;;;1.70;;
60312;SDS011;46158;52.850;6.970;2022-09-03T20:37:38;2.78;;;1.90;;
60312;SDS011;46158;52.850;6.970;2022-09-03T20:42:47;2.90;;;1.80;;
60312;SDS011;46158;52.850;6.970;2022-09-03T21:07:36;4.32;;;1.98;;
60312;SDS011;46158;52.850;6.970;2022-09-03T21:10:17;1.80;;;1.70;;
60312;SDS011;46158;52.850;6.970;2022-09-03T21:15:46;2.20;;;1.67;;
60312;SDS011;46158;52.850;6.970;2022-09-03T21:18:49;2.20;;;1.88;;
60312;SDS011;46158;52.850;6.970;2022-09-03T21:21:29;2.45;;;1.80;;
60312;SDS011;46158;52.850;6.970;2022-09-03T21:24:20;3.90;;;2.03;;
60312;SDS011;46158;52.850;6.970;2022-09-03T21:27:15;2.00;;;1.83;;
60312;SDS011;46158;52.850;6.970;2022-09-03T21:29:46;2.97;;;2.00;;
60312;SDS011;46158;52.850;6.970;2022-09-03T21:32:23;1.80;;;1.70;;
60312;SDS011;46158;52.850;6.970;2022-09-03T21:37:30;3.20;;;1.80;;
60312;SDS011;46158;52.850;6.970;2022-09-03T21:40:00;2.53;;;1.90;;
60312;SDS011;46158;52.850;6.970;2022-09-03T21:42:30;2.33;;;1.88;;
60312;SDS011;46158;52.850;6.970;2022-09-03T21:48:19;3.38;;;2.00;;
60312;SDS011;46158;52.850;6.970;2022-09-03T21:50:52;1.73;;;1.58;;
60312;SDS011;46158;52.850;6.970;2022-09-03T21:53:24;1.77;;;1.67;;
60312;SDS011;46158;52.850;6.970;2022-09-03T21:56:04;3.58;;;1.88;;
60312;SDS011;46158;52.850;6.970;2022-09-03T22:04:09;2.13;;;1.90;;
60312;SDS011;46158;52.850;6.970;2022-09-03T22:06:54;3.13;;;1.85;;
60312;SDS011;46158;52.850;6.970;2022-09-03T22:09:48;2.45;;;1.80;;
60312;SDS011;46158;52.850;6.970;2022-09-03T22:14:56;2.45;;;1.70;;
60312;SDS011;46158;52.850;6.970;2022-09-03T22:17:33;2.55;;;1.80;;
60312;SDS011;46158;52.850;6.970;2022-09-03T22:20:11;3.53;;;1.90;;
60312;SDS011;46158;52.850;6.970;2022-09-03T22:22:41;2.47;;;1.90;;
60312;SDS011;46158;52.850;6.970;2022-09-03T22:25:24;2.17;;;1.90;;
60312;SDS011;46158;52.850;6.970;2022-09-03T22:30:34;2.35;;;1.80;;
60312;SDS011;46158;52.850;6.970;2022-09-03T22:56:14;4.00;;;1.80;;
60312;SDS011;46158;52.850;6.970;2022-09-03T22:58:58;1.92;;;1.80;;
60312;SDS011;46158;52.850;6.970;2022-09-03T23:01:48;3.33;;;1.98;;
60312;SDS011;46158;52.850;6.970;2022-09-03T23:04:30;2.40;;;1.75;;
60312;SDS011;46158;52.850;6.970;2022-09-03T23:09:50;3.78;;;1.92;;
60312;SDS011;46158;52.850;6.970;2022-09-03T23:12:26;2.00;;;1.80;;
60312;SDS011;46158;52.850;6.970;2022-09-03T23:15:00;3.00;;;2.10;;
60312;SDS011;46158;52.850;6.970;2022-09-03T23:17:36;2.72;;;2.03;;